sensor_id;sensor_type;location;lat;lon;timestamp;P1;durP1;ratioP1;P2;durP2;ratioP2
62092;SDS011;59819;52.976;6.846;2022-07-04T00:00:42;6.20;;;4.18;;
62092;SDS011;59819;52.976;6.846;2022-07-04T00:03:08;7.22;;;4.70;;
62092;SDS011;59819;52.976;6.846;2022-07-04T00:05:34;6.55;;;4.68;;
62092;SDS011;59819;52.976;6.846;2022-07-04T00:08:00;6.78;;;4.63;;
62092;SDS011;59819;52.976;6.846;2022-07-04T00:10:26;7.03;;;4.80;;
62092;SDS011;59819;52.976;6.846;2022-07-04T00:12:52;7.97;;;4.55;;
62092;SDS011;59819;52.976;6.846;2022-07-04T00:15:19;6.88;;;4.63;;
62092;SDS011;59819;52.976;6.846;2022-07-04T00:17:45;6.50;;;4.78;;
62092;SDS011;59819;52.976;6.846;2022-07-04T00:20:11;7.63;;;4.70;;
62092;SDS011;59819;52.976;6.846;2022-07-04T00:22:37;5.97;;;4.63;;
62092;SDS011;59819;52.976;6.846;2022-07-04T00:25:03;6.25;;;4.80;;
62092;SDS011;59819;52.976;6.846;2022-07-04T00:27:29;7.13;;;4.90;;
62092;SDS011;59819;52.976;6.846;2022-07-04T00:29:55;7.72;;;5.00;;
62092;SDS011;59819;52.976;6.846;2022-07-04T00:32:21;7.93;;;4.95;;
62092;SDS011;59819;52.976;6.846;2022-07-04T00:34:47;7.65;;;5.47;;
62092;SDS011;59819;52.976;6.846;2022-07-04T00:37:13;6.43;;;4.82;;
62092;SDS011;59819;52.976;6.846;2022-07-04T00:39:39;5.65;;;4.60;;
62092;SDS011;59819;52.976;6.846;2022-07-04T00:42:06;8.05;;;4.40;;
62092;SDS011;59819;52.976;6.846;2022-07-04T00:44:32;8.38;;;4.85;;
62092;SDS011;59819;52.976;6.846;2022-07-04T00:47:01;7.28;;;4.82;;
62092;SDS011;59819;52.976;6.846;2022-07-04T00:49:27;6.00;;;5.05;;
62092;SDS011;59819;52.976;6.846;2022-07-04T00:51:53;5.80;;;4.93;;
62092;SDS011;59819;52.976;6.846;2022-07-04T00:54:19;7.25;;;4.93;;
62092;SDS011;59819;52.976;6.846;2022-07-04T00:56:47;6.13;;;4.85;;
62092;SDS011;59819;52.976;6.846;2022-07-04T00:59:13;5.47;;;4.75;;
62092;SDS011;59819;52.976;6.846;2022-07-04T01:01:39;7.55;;;4.90;;
62092;SDS011;59819;52.976;6.846;2022-07-04T01:04:05;9.05;;;5.30;;
62092;SDS011;59819;52.976;6.846;2022-07-04T01:06:32;7.22;;;5.22;;
62092;SDS011;59819;52.976;6.846;2022-07-04T01:08:59;11.00;;;5.38;;
62092;SDS011;59819;52.976;6.846;2022-07-04T01:11:25;5.50;;;4.75;;
62092;SDS011;59819;52.976;6.846;2022-07-04T01:13:53;7.32;;;4.80;;
62092;SDS011;59819;52.976;6.846;2022-07-04T01:16:19;8.85;;;4.90;;
62092;SDS011;59819;52.976;6.846;2022-07-04T01:18:45;6.18;;;4.88;;
62092;SDS011;59819;52.976;6.846;2022-07-04T01:21:11;7.70;;;5.00;;
62092;SDS011;59819;52.976;6.846;2022-07-04T01:23:40;6.15;;;4.72;;
62092;SDS011;59819;52.976;6.846;2022-07-04T01:26:07;6.45;;;4.60;;
62092;SDS011;59819;52.976;6.846;2022-07-04T01:28:33;6.18;;;4.80;;
62092;SDS011;59819;52.976;6.846;2022-07-04T01:30:59;7.63;;;5.22;;
62092;SDS011;59819;52.976;6.846;2022-07-04T01:33:25;6.75;;;4.93;;
62092;SDS011;59819;52.976;6.846;2022-07-04T01:35:51;7.15;;;4.60;;
62092;SDS011;59819;52.976;6.846;2022-07-04T01:38:17;5.75;;;4.70;;
62092;SDS011;59819;52.976;6.846;2022-07-04T01:40:43;5.47;;;4.32;;
62092;SDS011;59819;52.976;6.846;2022-07-04T01:43:09;5.38;;;4.28;;
62092;SDS011;59819;52.976;6.846;2022-07-04T01:45:35;5.82;;;5.00;;
62092;SDS011;59819;52.976;6.846;2022-07-04T01:48:08;5.88;;;4.72;;
62092;SDS011;59819;52.976;6.846;2022-07-04T01:50:34;9.07;;;4.97;;
62092;SDS011;59819;52.976;6.846;2022-07-04T01:53:01;10.55;;;5.00;;
62092;SDS011;59819;52.976;6.846;2022-07-04T01:55:27;7.38;;;5.10;;
62092;SDS011;59819;52.976;6.846;2022-07-04T01:57:53;6.80;;;4.95;;
62092;SDS011;59819;52.976;6.846;2022-07-04T02:00:19;6.93;;;5.50;;
62092;SDS011;59819;52.976;6.846;2022-07-04T02:03:04;8.82;;;6.47;;
62092;SDS011;59819;52.976;6.846;2022-07-04T02:05:30;8.10;;;6.38;;
62092;SDS011;59819;52.976;6.846;2022-07-04T02:07:56;10.25;;;6.90;;
62092;SDS011;59819;52.976;6.846;2022-07-04T02:10:22;11.10;;;7.18;;
62092;SDS011;59819;52.976;6.846;2022-07-04T02:12:48;11.63;;;8.27;;
62092;SDS011;59819;52.976;6.846;2022-07-04T02:15:27;11.75;;;7.72;;
62092;SDS011;59819;52.976;6.846;2022-07-04T02:17:53;10.90;;;8.02;;
62092;SDS011;59819;52.976;6.846;2022-07-04T02:20:19;10.38;;;8.00;;
62092;SDS011;59819;52.976;6.846;2022-07-04T02:22:45;11.25;;;7.80;;
62092;SDS011;59819;52.976;6.846;2022-07-04T02:25:11;11.23;;;8.27;;
62092;SDS011;59819;52.976;6.846;2022-07-04T02:27:37;12.10;;;7.75;;
62092;SDS011;59819;52.976;6.846;2022-07-04T02:30:05;11.75;;;8.50;;
62092;SDS011;59819;52.976;6.846;2022-07-04T02:32:31;11.77;;;8.32;;
62092;SDS011;59819;52.976;6.846;2022-07-04T02:34:57;9.25;;;7.32;;
62092;SDS011;59819;52.976;6.846;2022-07-04T02:37:23;9.27;;;7.82;;
62092;SDS011;59819;52.976;6.846;2022-07-04T02:39:49;11.10;;;8.13;;
62092;SDS011;59819;52.976;6.846;2022-07-04T02:42:15;12.13;;;7.55;;
62092;SDS011;59819;52.976;6.846;2022-07-04T02:44:41;11.55;;;8.68;;
62092;SDS011;59819;52.976;6.846;2022-07-04T02:47:08;11.27;;;8.48;;
62092;SDS011;59819;52.976;6.846;2022-07-04T02:49:35;12.15;;;8.43;;
62092;SDS011;59819;52.976;6.846;2022-07-04T02:52:01;10.90;;;8.15;;
62092;SDS011;59819;52.976;6.846;2022-07-04T02:54:27;12.82;;;8.38;;
62092;SDS011;59819;52.976;6.846;2022-07-04T02:56:53;13.32;;;9.70;;
62092;SDS011;59819;52.976;6.846;2022-07-04T02:59:19;12.68;;;8.77;;
62092;SDS011;59819;52.976;6.846;2022-07-04T03:01:45;11.30;;;7.97;;
62092;SDS011;59819;52.976;6.846;2022-07-04T03:04:11;12.98;;;7.95;;
62092;SDS011;59819;52.976;6.846;2022-07-04T03:06:37;12.15;;;8.57;;
62092;SDS011;59819;52.976;6.846;2022-07-04T03:09:05;11.32;;;8.38;;
62092;SDS011;59819;52.976;6.846;2022-07-04T03:11:31;9.25;;;7.55;;
62092;SDS011;59819;52.976;6.846;2022-07-04T03:13:57;9.73;;;7.60;;
62092;SDS011;59819;52.976;6.846;2022-07-04T03:16:23;10.45;;;8.13;;
62092;SDS011;59819;52.976;6.846;2022-07-04T03:18:49;9.50;;;7.28;;
62092;SDS011;59819;52.976;6.846;2022-07-04T03:21:15;10.10;;;8.20;;
62092;SDS011;59819;52.976;6.846;2022-07-04T03:23:41;11.77;;;8.60;;
62092;SDS011;59819;52.976;6.846;2022-07-04T03:26:07;11.13;;;8.23;;
62092;SDS011;59819;52.976;6.846;2022-07-04T03:28:34;14.63;;;8.80;;
62092;SDS011;59819;52.976;6.846;2022-07-04T03:31:00;7.10;;;6.40;;
62092;SDS011;59819;52.976;6.846;2022-07-04T03:33:26;10.57;;;8.23;;
62092;SDS011;59819;52.976;6.846;2022-07-04T03:35:52;12.27;;;8.93;;
62092;SDS011;59819;52.976;6.846;2022-07-04T03:38:18;12.70;;;8.90;;
62092;SDS011;59819;52.976;6.846;2022-07-04T03:40:44;12.82;;;8.07;;
62092;SDS011;59819;52.976;6.846;2022-07-04T03:43:10;11.75;;;8.55;;
62092;SDS011;59819;52.976;6.846;2022-07-04T03:45:36;11.52;;;9.57;;
62092;SDS011;59819;52.976;6.846;2022-07-04T03:48:02;11.98;;;9.48;;
62092;SDS011;59819;52.976;6.846;2022-07-04T03:50:29;14.00;;;9.57;;
62092;SDS011;59819;52.976;6.846;2022-07-04T03:52:55;14.18;;;10.27;;
62092;SDS011;59819;52.976;6.846;2022-07-04T03:55:21;15.32;;;10.10;;
62092;SDS011;59819;52.976;6.846;2022-07-04T03:57:47;11.35;;;9.55;;
62092;SDS011;59819;52.976;6.846;2022-07-04T04:00:13;14.57;;;11.15;;
62092;SDS011;59819;52.976;6.846;2022-07-04T04:02:39;14.95;;;10.95;;
62092;SDS011;59819;52.976;6.846;2022-07-04T04:05:05;13.82;;;10.73;;
62092;SDS011;59819;52.976;6.846;2022-07-04T04:07:50;14.23;;;11.35;;
62092;SDS011;59819;52.976;6.846;2022-07-04T04:10:16;16.40;;;11.80;;
62092;SDS011;59819;52.976;6.846;2022-07-04T04:12:42;17.48;;;12.20;;
62092;SDS011;59819;52.976;6.846;2022-07-04T04:15:08;18.20;;;12.63;;
62092;SDS011;59819;52.976;6.846;2022-07-04T04:17:34;17.58;;;13.50;;
62092;SDS011;59819;52.976;6.846;2022-07-04T04:20:00;19.70;;;13.95;;
62092;SDS011;59819;52.976;6.846;2022-07-04T04:22:29;22.48;;;14.20;;
62092;SDS011;59819;52.976;6.846;2022-07-04T04:24:56;17.73;;;13.20;;
62092;SDS011;59819;52.976;6.846;2022-07-04T04:27:22;20.50;;;14.38;;
62092;SDS011;59819;52.976;6.846;2022-07-04T04:29:48;19.35;;;13.77;;
62092;SDS011;59819;52.976;6.846;2022-07-04T04:32:15;19.13;;;13.20;;
62092;SDS011;59819;52.976;6.846;2022-07-04T04:34:41;20.80;;;13.88;;
62092;SDS011;59819;52.976;6.846;2022-07-04T04:37:07;20.77;;;14.45;;
62092;SDS011;59819;52.976;6.846;2022-07-04T04:39:33;22.00;;;14.93;;
62092;SDS011;59819;52.976;6.846;2022-07-04T04:41:58;21.75;;;15.95;;
62092;SDS011;59819;52.976;6.846;2022-07-04T04:44:25;21.80;;;15.48;;
62092;SDS011;59819;52.976;6.846;2022-07-04T04:46:51;22.27;;;15.23;;
62092;SDS011;59819;52.976;6.846;2022-07-04T04:49:17;24.55;;;16.33;;
62092;SDS011;59819;52.976;6.846;2022-07-04T04:51:43;21.05;;;16.13;;
62092;SDS011;59819;52.976;6.846;2022-07-04T04:54:09;22.05;;;15.77;;
62092;SDS011;59819;52.976;6.846;2022-07-04T04:56:35;20.42;;;15.45;;
62092;SDS011;59819;52.976;6.846;2022-07-04T04:59:01;23.88;;;15.50;;
62092;SDS011;59819;52.976;6.846;2022-07-04T05:01:27;24.17;;;16.08;;
62092;SDS011;59819;52.976;6.846;2022-07-04T05:03:53;27.88;;;17.20;;
62092;SDS011;59819;52.976;6.846;2022-07-04T05:06:19;25.05;;;16.70;;
62092;SDS011;59819;52.976;6.846;2022-07-04T05:08:45;26.00;;;16.83;;
62092;SDS011;59819;52.976;6.846;2022-07-04T05:11:11;24.85;;;17.75;;
62092;SDS011;59819;52.976;6.846;2022-07-04T05:13:37;28.33;;;17.63;;
62092;SDS011;59819;52.976;6.846;2022-07-04T05:16:03;25.90;;;17.67;;
62092;SDS011;59819;52.976;6.846;2022-07-04T05:18:29;23.45;;;17.00;;
62092;SDS011;59819;52.976;6.846;2022-07-04T05:20:56;26.75;;;18.73;;
62092;SDS011;59819;52.976;6.846;2022-07-04T05:23:22;28.63;;;19.30;;
62092;SDS011;59819;52.976;6.846;2022-07-04T05:25:48;27.02;;;18.67;;
62092;SDS011;59819;52.976;6.846;2022-07-04T05:28:14;27.92;;;18.85;;
62092;SDS011;59819;52.976;6.846;2022-07-04T05:30:40;26.95;;;18.02;;
62092;SDS011;59819;52.976;6.846;2022-07-04T05:33:07;24.70;;;17.35;;
62092;SDS011;59819;52.976;6.846;2022-07-04T05:35:33;32.10;;;18.40;;
62092;SDS011;59819;52.976;6.846;2022-07-04T05:37:59;23.85;;;16.77;;
62092;SDS011;59819;52.976;6.846;2022-07-04T05:40:25;25.65;;;16.35;;
62092;SDS011;59819;52.976;6.846;2022-07-04T05:42:51;22.67;;;16.10;;
62092;SDS011;59819;52.976;6.846;2022-07-04T05:45:17;22.60;;;15.93;;
62092;SDS011;59819;52.976;6.846;2022-07-04T05:47:43;22.88;;;16.15;;
62092;SDS011;59819;52.976;6.846;2022-07-04T05:50:10;24.52;;;16.30;;
62092;SDS011;59819;52.976;6.846;2022-07-04T05:52:36;21.80;;;14.93;;
62092;SDS011;59819;52.976;6.846;2022-07-04T05:55:02;21.75;;;15.32;;
62092;SDS011;59819;52.976;6.846;2022-07-04T05:57:28;20.08;;;14.25;;
62092;SDS011;59819;52.976;6.846;2022-07-04T05:59:54;21.60;;;14.02;;
62092;SDS011;59819;52.976;6.846;2022-07-04T06:02:20;20.33;;;14.30;;
62092;SDS011;59819;52.976;6.846;2022-07-04T06:04:46;19.83;;;14.02;;
62092;SDS011;59819;52.976;6.846;2022-07-04T06:07:12;16.67;;;12.90;;
62092;SDS011;59819;52.976;6.846;2022-07-04T06:09:38;18.40;;;13.70;;
62092;SDS011;59819;52.976;6.846;2022-07-04T06:12:04;21.67;;;14.52;;
62092;SDS011;59819;52.976;6.846;2022-07-04T06:14:31;19.20;;;14.20;;
62092;SDS011;59819;52.976;6.846;2022-07-04T06:16:57;18.73;;;13.23;;
62092;SDS011;59819;52.976;6.846;2022-07-04T06:19:23;19.20;;;12.50;;
62092;SDS011;59819;52.976;6.846;2022-07-04T06:21:49;18.55;;;12.05;;
62092;SDS011;59819;52.976;6.846;2022-07-04T06:24:15;16.83;;;11.15;;
62092;SDS011;59819;52.976;6.846;2022-07-04T06:26:41;18.63;;;11.23;;
62092;SDS011;59819;52.976;6.846;2022-07-04T06:29:07;15.90;;;11.40;;
62092;SDS011;59819;52.976;6.846;2022-07-04T06:31:33;22.85;;;11.88;;
62092;SDS011;59819;52.976;6.846;2022-07-04T06:34:00;16.05;;;9.95;;
62092;SDS011;59819;52.976;6.846;2022-07-04T06:36:45;15.38;;;10.52;;
62092;SDS011;59819;52.976;6.846;2022-07-04T06:39:11;14.13;;;9.38;;
62092;SDS011;59819;52.976;6.846;2022-07-04T06:41:37;13.63;;;8.55;;
62092;SDS011;59819;52.976;6.846;2022-07-04T06:44:03;11.43;;;7.47;;
62092;SDS011;59819;52.976;6.846;2022-07-04T06:46:29;16.27;;;8.23;;
62092;SDS011;59819;52.976;6.846;2022-07-04T06:48:55;11.50;;;8.13;;
62092;SDS011;59819;52.976;6.846;2022-07-04T06:51:22;12.60;;;7.72;;
62092;SDS011;59819;52.976;6.846;2022-07-04T06:53:48;11.52;;;7.65;;
62092;SDS011;59819;52.976;6.846;2022-07-04T06:56:14;13.25;;;7.65;;
62092;SDS011;59819;52.976;6.846;2022-07-04T06:58:40;11.50;;;7.55;;
62092;SDS011;59819;52.976;6.846;2022-07-04T07:01:06;10.95;;;7.28;;
62092;SDS011;59819;52.976;6.846;2022-07-04T07:03:32;9.18;;;6.40;;
62092;SDS011;59819;52.976;6.846;2022-07-04T07:05:58;9.43;;;6.07;;
62092;SDS011;59819;52.976;6.846;2022-07-04T07:08:24;11.00;;;6.47;;
62092;SDS011;59819;52.976;6.846;2022-07-04T07:10:51;11.48;;;6.95;;
62092;SDS011;59819;52.976;6.846;2022-07-04T07:13:17;12.20;;;7.70;;
62092;SDS011;59819;52.976;6.846;2022-07-04T07:15:43;11.05;;;6.72;;
62092;SDS011;59819;52.976;6.846;2022-07-04T07:18:09;10.75;;;6.38;;
62092;SDS011;59819;52.976;6.846;2022-07-04T07:20:36;12.50;;;7.32;;
62092;SDS011;59819;52.976;6.846;2022-07-04T07:23:02;12.85;;;7.43;;
62092;SDS011;59819;52.976;6.846;2022-07-04T07:25:29;13.05;;;7.50;;
62092;SDS011;59819;52.976;6.846;2022-07-04T07:27:55;12.23;;;7.68;;
62092;SDS011;59819;52.976;6.846;2022-07-04T07:30:21;12.15;;;7.30;;
62092;SDS011;59819;52.976;6.846;2022-07-04T07:32:47;11.30;;;7.35;;
62092;SDS011;59819;52.976;6.846;2022-07-04T07:35:13;11.75;;;8.38;;
62092;SDS011;59819;52.976;6.846;2022-07-04T07:37:40;13.80;;;7.88;;
62092;SDS011;59819;52.976;6.846;2022-07-04T07:40:06;13.57;;;7.78;;
62092;SDS011;59819;52.976;6.846;2022-07-04T07:42:33;10.90;;;7.72;;
62092;SDS011;59819;52.976;6.846;2022-07-04T07:44:59;10.98;;;7.80;;
62092;SDS011;59819;52.976;6.846;2022-07-04T07:47:25;12.85;;;8.60;;
62092;SDS011;59819;52.976;6.846;2022-07-04T07:49:51;9.90;;;7.03;;
62092;SDS011;59819;52.976;6.846;2022-07-04T07:52:17;13.02;;;7.60;;
62092;SDS011;59819;52.976;6.846;2022-07-04T07:54:43;13.38;;;6.82;;
62092;SDS011;59819;52.976;6.846;2022-07-04T07:57:09;13.68;;;7.15;;
62092;SDS011;59819;52.976;6.846;2022-07-04T07:59:35;11.55;;;7.43;;
62092;SDS011;59819;52.976;6.846;2022-07-04T08:02:01;11.57;;;7.38;;
62092;SDS011;59819;52.976;6.846;2022-07-04T08:04:27;9.93;;;6.72;;
62092;SDS011;59819;52.976;6.846;2022-07-04T08:06:59;9.25;;;6.38;;
62092;SDS011;59819;52.976;6.846;2022-07-04T08:09:25;10.90;;;6.38;;
62092;SDS011;59819;52.976;6.846;2022-07-04T08:11:51;7.55;;;5.07;;
62092;SDS011;59819;52.976;6.846;2022-07-04T08:14:17;10.80;;;6.05;;
62092;SDS011;59819;52.976;6.846;2022-07-04T08:16:44;12.95;;;5.75;;
62092;SDS011;59819;52.976;6.846;2022-07-04T08:19:10;10.30;;;5.15;;
62092;SDS011;59819;52.976;6.846;2022-07-04T08:21:36;11.00;;;6.03;;
62092;SDS011;59819;52.976;6.846;2022-07-04T08:24:02;12.10;;;5.10;;
62092;SDS011;59819;52.976;6.846;2022-07-04T08:26:28;6.45;;;4.65;;
62092;SDS011;59819;52.976;6.846;2022-07-04T08:28:54;11.20;;;5.78;;
62092;SDS011;59819;52.976;6.846;2022-07-04T08:31:22;10.57;;;5.60;;
62092;SDS011;59819;52.976;6.846;2022-07-04T08:33:49;10.70;;;5.70;;
62092;SDS011;59819;52.976;6.846;2022-07-04T08:36:15;12.10;;;5.70;;
62092;SDS011;59819;52.976;6.846;2022-07-04T08:38:41;11.80;;;5.70;;
62092;SDS011;59819;52.976;6.846;2022-07-04T08:41:07;10.68;;;5.85;;
62092;SDS011;59819;52.976;6.846;2022-07-04T08:43:33;8.27;;;4.88;;
62092;SDS011;59819;52.976;6.846;2022-07-04T08:46:05;8.38;;;5.00;;
62092;SDS011;59819;52.976;6.846;2022-07-04T08:48:31;9.55;;;4.60;;
62092;SDS011;59819;52.976;6.846;2022-07-04T08:51:17;8.63;;;4.40;;
62092;SDS011;59819;52.976;6.846;2022-07-04T08:53:52;8.85;;;5.32;;
62092;SDS011;59819;52.976;6.846;2022-07-04T08:56:20;6.53;;;3.90;;
62092;SDS011;59819;52.976;6.846;2022-07-04T08:59:05;7.40;;;3.30;;
62092;SDS011;59819;52.976;6.846;2022-07-04T09:01:31;7.28;;;3.08;;
62092;SDS011;59819;52.976;6.846;2022-07-04T09:03:58;6.20;;;2.88;;
62092;SDS011;59819;52.976;6.846;2022-07-04T09:06:25;6.18;;;3.20;;
62092;SDS011;59819;52.976;6.846;2022-07-04T09:08:53;6.05;;;3.05;;
62092;SDS011;59819;52.976;6.846;2022-07-04T09:11:19;8.10;;;3.55;;
62092;SDS011;59819;52.976;6.846;2022-07-04T09:13:45;6.60;;;2.88;;
62092;SDS011;59819;52.976;6.846;2022-07-04T09:16:12;8.48;;;3.38;;
62092;SDS011;59819;52.976;6.846;2022-07-04T09:18:38;5.78;;;2.95;;
62092;SDS011;59819;52.976;6.846;2022-07-04T09:21:06;5.22;;;2.63;;
62092;SDS011;59819;52.976;6.846;2022-07-04T09:23:38;3.88;;;2.50;;
62092;SDS011;59819;52.976;6.846;2022-07-04T09:26:09;6.43;;;2.50;;
62092;SDS011;59819;52.976;6.846;2022-07-04T09:28:36;5.35;;;2.35;;
62092;SDS011;59819;52.976;6.846;2022-07-04T09:31:12;4.78;;;2.17;;
62092;SDS011;59819;52.976;6.846;2022-07-04T09:33:49;4.13;;;2.40;;
62092;SDS011;59819;52.976;6.846;2022-07-04T09:36:16;4.85;;;2.60;;
62092;SDS011;59819;52.976;6.846;2022-07-04T09:38:43;6.65;;;2.88;;
62092;SDS011;59819;52.976;6.846;2022-07-04T09:41:09;9.07;;;2.50;;
62092;SDS011;59819;52.976;6.846;2022-07-04T09:44:06;5.72;;;2.03;;
62092;SDS011;59819;52.976;6.846;2022-07-04T09:49:01;5.68;;;2.40;;
62092;SDS011;59819;52.976;6.846;2022-07-04T09:54:18;6.15;;;2.60;;
62092;SDS011;59819;52.976;6.846;2022-07-04T09:56:46;4.72;;;2.38;;
62092;SDS011;59819;52.976;6.846;2022-07-04T09:59:12;2.92;;;2.30;;
62092;SDS011;59819;52.976;6.846;2022-07-04T10:01:38;4.45;;;2.45;;
62092;SDS011;59819;52.976;6.846;2022-07-04T10:04:05;6.07;;;2.67;;
62092;SDS011;59819;52.976;6.846;2022-07-04T10:06:34;5.43;;;2.53;;
62092;SDS011;59819;52.976;6.846;2022-07-04T10:09:07;7.72;;;2.70;;
62092;SDS011;59819;52.976;6.846;2022-07-04T10:11:34;6.55;;;2.20;;
62092;SDS011;59819;52.976;6.846;2022-07-04T10:14:02;3.10;;;2.15;;
62092;SDS011;59819;52.976;6.846;2022-07-04T10:16:29;3.05;;;2.33;;
62092;SDS011;59819;52.976;6.846;2022-07-04T10:18:56;3.50;;;2.08;;
62092;SDS011;59819;52.976;6.846;2022-07-04T10:21:23;11.07;;;2.50;;
62092;SDS011;59819;52.976;6.846;2022-07-04T10:23:52;2.13;;;1.60;;
62092;SDS011;59819;52.976;6.846;2022-07-04T10:26:18;4.22;;;1.95;;
62092;SDS011;59819;52.976;6.846;2022-07-04T10:28:44;3.67;;;1.60;;
62092;SDS011;59819;52.976;6.846;2022-07-04T10:31:12;3.67;;;2.00;;
62092;SDS011;59819;52.976;6.846;2022-07-04T10:33:39;4.70;;;1.90;;
62092;SDS011;59819;52.976;6.846;2022-07-04T10:38:47;2.95;;;1.80;;
62092;SDS011;59819;52.976;6.846;2022-07-04T10:41:14;2.67;;;1.65;;
62092;SDS011;59819;52.976;6.846;2022-07-04T10:49:39;4.30;;;1.52;;
62092;SDS011;59819;52.976;6.846;2022-07-04T10:51:53;3.28;;;1.90;;
62092;SDS011;59819;52.976;6.846;2022-07-04T10:54:32;4.22;;;2.00;;
62092;SDS011;59819;52.976;6.846;2022-07-04T10:57:14;3.85;;;1.83;;
62092;SDS011;59819;52.976;6.846;2022-07-04T10:59:42;2.53;;;1.73;;
62092;SDS011;59819;52.976;6.846;2022-07-04T11:04:44;4.32;;;1.70;;
62092;SDS011;59819;52.976;6.846;2022-07-04T11:07:10;2.70;;;1.58;;
62092;SDS011;59819;52.976;6.846;2022-07-04T11:09:36;10.20;;;2.15;;
62092;SDS011;59819;52.976;6.846;2022-07-04T11:12:03;4.57;;;1.77;;
62092;SDS011;59819;52.976;6.846;2022-07-04T11:14:44;6.57;;;2.13;;
62092;SDS011;59819;52.976;6.846;2022-07-04T11:19:36;3.95;;;1.90;;
62092;SDS011;59819;52.976;6.846;2022-07-04T11:22:03;5.32;;;2.00;;
62092;SDS011;59819;52.976;6.846;2022-07-04T11:24:30;4.78;;;1.95;;
62092;SDS011;59819;52.976;6.846;2022-07-04T11:26:56;3.03;;;1.73;;
62092;SDS011;59819;52.976;6.846;2022-07-04T11:29:23;10.02;;;2.40;;
62092;SDS011;59819;52.976;6.846;2022-07-04T11:31:50;3.75;;;1.80;;
62092;SDS011;59819;52.976;6.846;2022-07-04T11:34:16;3.13;;;2.08;;
62092;SDS011;59819;52.976;6.846;2022-07-04T11:36:44;6.30;;;2.00;;
62092;SDS011;59819;52.976;6.846;2022-07-04T11:39:14;5.63;;;1.90;;
62092;SDS011;59819;52.976;6.846;2022-07-04T11:41:44;6.50;;;2.15;;
62092;SDS011;59819;52.976;6.846;2022-07-04T11:44:30;4.30;;;1.90;;
62092;SDS011;59819;52.976;6.846;2022-07-04T11:47:16;5.25;;;1.95;;
62092;SDS011;59819;52.976;6.846;2022-07-04T11:49:43;9.23;;;2.42;;
62092;SDS011;59819;52.976;6.846;2022-07-04T11:52:10;2.05;;;1.52;;
62092;SDS011;59819;52.976;6.846;2022-07-04T11:54:36;2.42;;;1.80;;
62092;SDS011;59819;52.976;6.846;2022-07-04T11:57:13;3.42;;;1.67;;
62092;SDS011;59819;52.976;6.846;2022-07-04T11:59:40;2.58;;;1.80;;
62092;SDS011;59819;52.976;6.846;2022-07-04T12:02:12;2.05;;;1.80;;
62092;SDS011;59819;52.976;6.846;2022-07-04T12:04:39;3.78;;;1.83;;
62092;SDS011;59819;52.976;6.846;2022-07-04T12:07:13;2.22;;;1.50;;
62092;SDS011;59819;52.976;6.846;2022-07-04T12:09:40;2.28;;;1.80;;
62092;SDS011;59819;52.976;6.846;2022-07-04T12:12:06;6.10;;;1.98;;
62092;SDS011;59819;52.976;6.846;2022-07-04T12:14:32;4.25;;;2.00;;
62092;SDS011;59819;52.976;6.846;2022-07-04T12:17:09;3.30;;;1.45;;
62092;SDS011;59819;52.976;6.846;2022-07-04T12:19:35;1.50;;;1.40;;
62092;SDS011;59819;52.976;6.846;2022-07-04T12:22:01;2.35;;;1.67;;
62092;SDS011;59819;52.976;6.846;2022-07-04T12:24:27;2.42;;;1.80;;
62092;SDS011;59819;52.976;6.846;2022-07-04T12:26:53;6.18;;;1.67;;
62092;SDS011;59819;52.976;6.846;2022-07-04T12:29:23;2.70;;;1.70;;
62092;SDS011;59819;52.976;6.846;2022-07-04T12:31:52;10.13;;;2.30;;
62092;SDS011;59819;52.976;6.846;2022-07-04T12:34:18;6.30;;;1.92;;
62092;SDS011;59819;52.976;6.846;2022-07-04T12:36:52;4.47;;;1.45;;
62092;SDS011;59819;52.976;6.846;2022-07-04T12:39:32;16.83;;;2.03;;
62092;SDS011;59819;52.976;6.846;2022-07-04T12:42:05;2.65;;;1.40;;
62092;SDS011;59819;52.976;6.846;2022-07-04T12:44:32;6.35;;;2.08;;
62092;SDS011;59819;52.976;6.846;2022-07-04T12:46:58;8.55;;;1.50;;
62092;SDS011;59819;52.976;6.846;2022-07-04T12:49:25;3.78;;;1.40;;
62092;SDS011;59819;52.976;6.846;2022-07-04T12:51:51;5.90;;;1.60;;
62092;SDS011;59819;52.976;6.846;2022-07-04T12:54:17;3.13;;;1.20;;
62092;SDS011;59819;52.976;6.846;2022-07-04T12:56:44;5.32;;;1.42;;
62092;SDS011;59819;52.976;6.846;2022-07-04T12:59:11;1.73;;;1.23;;
62092;SDS011;59819;52.976;6.846;2022-07-04T13:01:39;2.22;;;1.13;;
62092;SDS011;59819;52.976;6.846;2022-07-04T13:04:05;2.38;;;1.08;;
62092;SDS011;59819;52.976;6.846;2022-07-04T13:06:31;4.72;;;1.70;;
62092;SDS011;59819;52.976;6.846;2022-07-04T13:08:57;2.63;;;1.40;;
62092;SDS011;59819;52.976;6.846;2022-07-04T13:11:24;2.80;;;1.50;;
62092;SDS011;59819;52.976;6.846;2022-07-04T13:14:08;2.88;;;1.30;;
62092;SDS011;59819;52.976;6.846;2022-07-04T13:16:35;2.40;;;1.20;;
62092;SDS011;59819;52.976;6.846;2022-07-04T13:19:01;1.98;;;1.13;;
62092;SDS011;59819;52.976;6.846;2022-07-04T13:21:27;3.08;;;1.58;;
62092;SDS011;59819;52.976;6.846;2022-07-04T13:23:53;2.67;;;1.23;;
62092;SDS011;59819;52.976;6.846;2022-07-04T13:26:19;4.10;;;1.10;;
62092;SDS011;59819;52.976;6.846;2022-07-04T13:28:45;2.80;;;1.27;;
62092;SDS011;59819;52.976;6.846;2022-07-04T13:31:11;3.05;;;1.00;;
62092;SDS011;59819;52.976;6.846;2022-07-04T13:33:38;3.22;;;1.10;;
62092;SDS011;59819;52.976;6.846;2022-07-04T13:36:04;2.03;;;1.10;;
62092;SDS011;59819;52.976;6.846;2022-07-04T13:38:30;2.50;;;1.10;;
62092;SDS011;59819;52.976;6.846;2022-07-04T13:40:56;2.55;;;1.20;;
62092;SDS011;59819;52.976;6.846;2022-07-04T13:43:26;2.83;;;1.02;;
62092;SDS011;59819;52.976;6.846;2022-07-04T13:45:52;2.10;;;1.00;;
62092;SDS011;59819;52.976;6.846;2022-07-04T13:48:19;2.30;;;1.08;;
62092;SDS011;59819;52.976;6.846;2022-07-04T13:50:45;2.00;;;1.20;;
62092;SDS011;59819;52.976;6.846;2022-07-04T13:53:11;2.60;;;1.17;;
62092;SDS011;59819;52.976;6.846;2022-07-04T13:55:37;1.65;;;1.20;;
62092;SDS011;59819;52.976;6.846;2022-07-04T13:58:04;1.95;;;1.00;;
62092;SDS011;59819;52.976;6.846;2022-07-04T14:00:30;2.30;;;1.00;;
62092;SDS011;59819;52.976;6.846;2022-07-04T14:02:56;1.70;;;1.00;;
62092;SDS011;59819;52.976;6.846;2022-07-04T14:05:22;1.65;;;1.20;;
62092;SDS011;59819;52.976;6.846;2022-07-04T14:07:49;1.63;;;1.00;;
62092;SDS011;59819;52.976;6.846;2022-07-04T14:10:15;1.10;;;0.80;;
62092;SDS011;59819;52.976;6.846;2022-07-04T14:12:41;2.97;;;0.80;;
62092;SDS011;59819;52.976;6.846;2022-07-04T14:15:08;1.92;;;0.93;;
62092;SDS011;59819;52.976;6.846;2022-07-04T14:17:35;1.58;;;1.00;;
62092;SDS011;59819;52.976;6.846;2022-07-04T14:20:01;2.20;;;1.10;;
62092;SDS011;59819;52.976;6.846;2022-07-04T14:22:28;2.58;;;0.93;;
62092;SDS011;59819;52.976;6.846;2022-07-04T14:24:54;1.50;;;0.90;;
62092;SDS011;59819;52.976;6.846;2022-07-04T14:27:20;2.28;;;1.25;;
62092;SDS011;59819;52.976;6.846;2022-07-04T14:29:47;2.35;;;1.10;;
62092;SDS011;59819;52.976;6.846;2022-07-04T14:32:13;2.58;;;1.13;;
62092;SDS011;59819;52.976;6.846;2022-07-04T14:34:39;1.60;;;0.80;;
62092;SDS011;59819;52.976;6.846;2022-07-04T14:37:05;2.55;;;1.10;;
62092;SDS011;59819;52.976;6.846;2022-07-04T14:39:31;2.38;;;1.10;;
62092;SDS011;59819;52.976;6.846;2022-07-04T14:41:57;3.17;;;1.52;;
62092;SDS011;59819;52.976;6.846;2022-07-04T14:44:23;2.85;;;1.20;;
62092;SDS011;59819;52.976;6.846;2022-07-04T14:46:49;1.50;;;1.00;;
62092;SDS011;59819;52.976;6.846;2022-07-04T14:49:15;4.03;;;1.20;;
62092;SDS011;59819;52.976;6.846;2022-07-04T14:51:41;1.67;;;1.10;;
62092;SDS011;59819;52.976;6.846;2022-07-04T14:54:07;2.47;;;1.35;;
62092;SDS011;59819;52.976;6.846;2022-07-04T14:56:34;1.42;;;1.00;;
62092;SDS011;59819;52.976;6.846;2022-07-04T14:59:00;3.53;;;1.10;;